createdAt,value
2019-04-22T14:16:55.912Z,17.60
2019-04-22T14:19:27.761Z,17.70
2019-04-22T14:21:59.704Z,17.90
2019-04-22T14:24:30.180Z,17.90
2019-04-22T14:27:15.179Z,17.90
2019-04-22T14:29:33.566Z,18.00
2019-04-22T14:32:11.358Z,17.90
2019-04-22T14:34:38.394Z,17.90
2019-04-22T14:37:09.986Z,17.90
2019-04-22T14:39:41.949Z,18.20
2019-04-22T14:42:28.361Z,18.20
2019-04-22T14:45:20.556Z,18.00
2019-04-22T14:47:45.064Z,17.70
2019-04-22T14:50:12.311Z,17.60
2019-04-22T14:52:48.869Z,17.60
2019-04-22T14:55:03.914Z,17.70
2019-04-22T14:57:27.764Z,17.70
2019-04-22T14:59:57.894Z,17.70
2019-04-22T15:02:29.777Z,17.70
2019-04-22T15:05:00.598Z,17.80
2019-04-22T15:07:33.047Z,17.60
2019-04-22T15:10:08.245Z,17.70
2019-04-22T15:12:45.695Z,17.80
2019-04-22T15:15:19.810Z,17.80
2019-04-22T15:17:56.749Z,17.80
2019-04-22T15:20:52.338Z,17.70
2019-04-22T15:23:22.447Z,17.80
2019-04-22T15:25:54.637Z,18.00
2019-04-22T15:28:25.151Z,18.10
2019-04-22T15:30:55.684Z,17.90
2019-04-22T15:33:25.966Z,18.00
2019-04-22T15:35:56.609Z,18.00
2019-04-22T15:38:28.161Z,18.00
2019-04-22T15:41:00.761Z,17.80
2019-04-22T15:43:34.647Z,18.00
2019-04-22T15:46:03.920Z,18.00
2019-04-22T15:48:35.954Z,18.00
2019-04-22T15:51:06.877Z,18.20
2019-04-22T15:53:37.964Z,18.50
2019-04-22T15:56:08.886Z,18.20
2019-04-22T15:58:39.654Z,18.50
2019-04-22T16:01:18.134Z,18.50
2019-04-22T16:03:42.786Z,18.40
2019-04-22T16:06:13.643Z,18.60
2019-04-22T16:08:45.688Z,18.60
2019-04-22T16:11:17.963Z,18.10
2019-04-22T16:13:50.401Z,18.00
2019-04-22T16:16:21.101Z,17.90
2019-04-22T16:18:51.799Z,17.80
2019-04-22T16:21:32.687Z,17.60
2019-04-22T16:24:11.086Z,17.50
2019-04-22T16:26:52.010Z,17.20
2019-04-22T16:29:23.550Z,17.30
2019-04-22T16:31:55.506Z,17.30
2019-04-22T16:34:27.166Z,17.40
2019-04-22T16:36:58.621Z,17.40
2019-04-22T16:39:29.276Z,17.20
2019-04-22T16:42:00.622Z,17.10
2019-04-22T16:44:32.347Z,17.00
2019-04-22T16:47:03.691Z,16.70
2019-04-22T16:49:34.287Z,16.70
2019-04-22T16:52:05.762Z,16.60
2019-04-22T16:54:36.894Z,16.50
2019-04-22T16:57:08.121Z,16.50
2019-04-22T16:59:40.353Z,16.30
2019-04-22T17:02:30.737Z,16.10
2019-04-22T17:05:16.043Z,16.00
2019-04-22T17:07:48.048Z,16.00
2019-04-22T17:10:19.654Z,16.00
2019-04-22T17:12:58.123Z,16.00
2019-04-22T17:15:24.159Z,15.90
2019-04-22T17:17:54.915Z,15.90
2019-04-22T17:20:25.422Z,15.70
2019-04-22T17:22:56.103Z,15.50
2019-04-22T17:25:26.772Z,15.30
2019-04-22T17:27:57.447Z,15.20
2019-04-22T17:30:29.140Z,15.00
2019-04-22T17:33:00.894Z,14.90
2019-04-22T17:35:33.938Z,14.90
2019-04-22T17:38:12.759Z,14.80
2019-04-22T17:40:51.221Z,14.70
2019-04-22T17:43:42.291Z,14.60
2019-04-22T17:46:19.461Z,14.50
2019-04-22T17:49:11.708Z,14.40
2019-04-22T17:51:45.029Z,14.20
2019-04-22T17:54:19.169Z,14.20
2019-04-22T17:56:50.990Z,14.10
2019-04-22T17:59:29.470Z,14.10
2019-04-22T18:01:55.130Z,14.10
2019-04-22T18:04:08.704Z,14.00
2019-04-22T18:07:03.890Z,13.90
2019-04-22T18:10:06.677Z,13.80
2019-04-22T18:12:11.552Z,13.80
2019-04-22T18:14:54.671Z,13.80
2019-04-22T18:17:10.933Z,13.80
2019-04-22T18:19:44.887Z,13.60
2019-04-22T18:22:10.968Z,13.60
2019-04-22T18:24:43.653Z,13.50
2019-04-22T18:27:34.359Z,13.50
2019-04-22T18:29:46.118Z,13.50
2019-04-22T18:32:16.794Z,13.50
2019-04-22T18:34:49.536Z,13.50
2019-04-22T18:37:19.930Z,13.40
2019-04-22T18:40:02.211Z,13.30
2019-04-22T18:42:27.099Z,13.30
2019-04-22T18:45:20.261Z,13.20
2019-04-22T18:47:32.290Z,13.10
2019-04-22T18:50:03.129Z,13.00
2019-04-22T18:52:55.142Z,12.90
2019-04-22T18:55:33.952Z,12.90
2019-04-22T18:58:10.191Z,12.80
2019-04-22T19:00:31.571Z,12.70
2019-04-22T19:03:09.862Z,12.70
2019-04-22T19:05:51.579Z,12.60
2019-04-22T19:08:28.666Z,12.60
2019-04-22T19:18:39.184Z,12.30
2019-04-22T19:21:13.512Z,12.20
2019-04-22T19:23:44.971Z,12.10
2019-04-22T19:26:20.871Z,12.10
2019-04-22T19:28:52.404Z,12.10
2019-04-22T19:31:24.771Z,12.00
2019-04-22T19:34:01.628Z,12.00
2019-04-22T19:36:30.115Z,11.90
2019-04-22T19:38:59.262Z,11.80
2019-04-22T19:41:37.093Z,11.80
2019-04-22T19:44:05.764Z,11.70
2019-04-22T19:46:35.439Z,11.80
2019-04-22T19:49:10.578Z,11.70
2019-04-22T19:51:47.620Z,11.70
2019-04-22T19:54:14.049Z,11.60
2019-04-22T19:56:36.654Z,11.60
2019-04-22T19:59:12.232Z,11.50
2019-04-22T20:02:01.072Z,11.50
2019-04-22T20:04:47.405Z,11.40
2019-04-22T20:07:17.964Z,11.40
2019-04-22T20:09:52.225Z,11.30
2019-04-22T20:12:21.003Z,11.20
2019-04-22T20:14:57.741Z,11.20
2019-04-22T20:17:38.818Z,11.10
2019-04-22T20:20:06.466Z,11.10
2019-04-22T20:22:30.306Z,11.10
2019-04-22T20:24:53.088Z,11.10
2019-04-22T20:27:36.477Z,11.00
2019-04-22T20:30:10.000Z,11.00
2019-04-22T20:32:37.643Z,10.90
2019-04-22T20:35:15.212Z,10.90
2019-04-22T20:37:45.346Z,10.80
2019-04-22T20:40:18.036Z,10.80
2019-04-22T20:42:55.269Z,10.70
2019-04-22T20:45:29.097Z,10.70
2019-04-22T20:47:45.439Z,10.70
2019-04-22T20:50:24.987Z,10.70
2019-04-22T20:52:59.706Z,10.60
2019-04-22T20:55:25.705Z,10.60
2019-04-22T20:58:08.140Z,10.50
2019-04-22T21:00:31.177Z,10.60
2019-04-22T21:02:59.819Z,10.50
2019-04-22T21:05:34.636Z,10.50
2019-04-22T21:08:20.917Z,10.50
2019-04-22T21:10:37.425Z,10.40
2019-04-22T21:13:12.795Z,10.40
2019-04-22T21:15:49.508Z,10.30
2019-04-22T21:18:19.115Z,10.30
2019-04-22T21:20:56.257Z,10.20
2019-04-22T21:23:22.899Z,10.20
2019-04-22T21:26:02.298Z,10.20
2019-04-22T21:28:34.204Z,10.20
2019-04-22T21:31:05.863Z,10.20
2019-04-22T21:33:37.879Z,10.10
2019-04-22T21:38:43.530Z,10.00
2019-04-22T21:41:09.969Z,10.00
2019-04-22T21:43:50.044Z,10.00
2019-04-22T21:46:19.302Z,10.20
2019-04-22T21:48:53.770Z,9.90
2019-04-22T21:51:24.569Z,9.90
2019-04-22T21:56:53.107Z,9.90
2019-04-22T21:59:01.869Z,9.90
2019-04-22T22:01:52.656Z,9.80
2019-04-22T22:04:17.439Z,9.80
2019-04-22T22:06:40.346Z,9.80
2019-04-22T22:09:23.251Z,9.80
2019-04-22T22:11:52.799Z,9.80
2019-04-22T22:14:24.799Z,9.80
2019-04-22T22:16:50.486Z,9.80
2019-04-22T22:19:28.488Z,9.70
2019-04-22T22:22:05.951Z,9.70
2019-04-22T22:24:41.645Z,9.70
2019-04-22T22:27:12.617Z,9.70
2019-04-22T22:29:50.354Z,9.70
2019-04-22T22:32:14.257Z,9.70
2019-04-22T22:34:43.421Z,9.60
2019-04-22T22:37:07.586Z,9.60
2019-04-22T22:39:41.996Z,9.60
2019-04-22T22:41:59.606Z,9.50
2019-04-22T22:44:36.852Z,9.50
2019-04-22T22:47:18.200Z,9.50
2019-04-22T22:49:56.549Z,9.50
2019-04-22T22:55:01.519Z,9.40
2019-04-22T22:57:33.712Z,9.40
2019-04-22T23:00:01.768Z,9.40
2019-04-22T23:02:45.151Z,9.40
2019-04-22T23:05:09.612Z,9.30
2019-04-22T23:07:44.127Z,9.30
2019-04-22T23:10:12.595Z,9.30
2019-04-22T23:12:48.915Z,9.30
2019-04-22T23:15:15.466Z,9.30
2019-04-22T23:17:32.200Z,9.30
2019-04-22T23:20:03.407Z,9.30
2019-04-22T23:22:59.755Z,9.30
2019-04-22T23:25:33.829Z,9.30
2019-04-22T23:28:16.126Z,9.30
2019-04-22T23:31:07.505Z,9.30
2019-04-22T23:33:46.334Z,9.40
2019-04-22T23:36:38.377Z,9.40
2019-04-22T23:39:17.078Z,9.40
2019-04-22T23:41:50.369Z,9.50
2019-04-22T23:44:27.494Z,9.40
2019-04-22T23:46:56.801Z,9.60
2019-04-22T23:49:25.108Z,9.60
2019-04-22T23:52:08.936Z,9.60
2019-04-22T23:54:46.457Z,9.60
2019-04-22T23:57:03.360Z,9.60
